sensor_id;sensor_type;location;lat;lon;timestamp;P1;durP1;ratioP1;P2;durP2;ratioP2
25917;SDS011;13899;51.174;4.456;2023-04-03T00:01:07;13.50;;;12.27;;
25917;SDS011;13899;51.174;4.456;2023-04-03T00:03:33;15.77;;;12.20;;
25917;SDS011;13899;51.174;4.456;2023-04-03T00:05:59;14.47;;;13.07;;
25917;SDS011;13899;51.174;4.456;2023-04-03T00:08:26;14.00;;;12.50;;
25917;SDS011;13899;51.174;4.456;2023-04-03T00:10:51;14.87;;;13.17;;
25917;SDS011;13899;51.174;4.456;2023-04-03T00:13:17;13.80;;;11.93;;
25917;SDS011;13899;51.174;4.456;2023-04-03T00:15:43;14.50;;;10.37;;
25917;SDS011;13899;51.174;4.456;2023-04-03T00:18:09;14.07;;;12.73;;
25917;SDS011;13899;51.174;4.456;2023-04-03T00:20:34;14.80;;;13.07;;
25917;SDS011;13899;51.174;4.456;2023-04-03T00:23:00;15.23;;;13.40;;
25917;SDS011;13899;51.174;4.456;2023-04-03T00:25:26;18.20;;;13.18;;
25917;SDS011;13899;51.174;4.456;2023-04-03T00:27:52;14.50;;;13.10;;
25917;SDS011;13899;51.174;4.456;2023-04-03T00:30:18;12.77;;;10.57;;
25917;SDS011;13899;51.174;4.456;2023-04-03T00:32:47;14.77;;;13.43;;
25917;SDS011;13899;51.174;4.456;2023-04-03T00:35:14;14.98;;;13.32;;
25917;SDS011;13899;51.174;4.456;2023-04-03T00:37:43;14.57;;;13.00;;
25917;SDS011;13899;51.174;4.456;2023-04-03T00:42:36;13.70;;;12.40;;
25917;SDS011;13899;51.174;4.456;2023-04-03T00:47:28;14.20;;;12.80;;
25917;SDS011;13899;51.174;4.456;2023-04-03T00:49:55;13.68;;;12.50;;
25917;SDS011;13899;51.174;4.456;2023-04-03T00:52:23;17.35;;;12.50;;
25917;SDS011;13899;51.174;4.456;2023-04-03T00:54:52;14.52;;;12.25;;
25917;SDS011;13899;51.174;4.456;2023-04-03T00:57:22;14.07;;;12.68;;
25917;SDS011;13899;51.174;4.456;2023-04-03T00:59:53;14.43;;;13.02;;
25917;SDS011;13899;51.174;4.456;2023-04-03T01:02:22;16.67;;;13.18;;
25917;SDS011;13899;51.174;4.456;2023-04-03T01:04:47;11.00;;;9.90;;
25917;SDS011;13899;51.174;4.456;2023-04-03T01:07:17;15.33;;;12.93;;
25917;SDS011;13899;51.174;4.456;2023-04-03T01:09:48;14.50;;;13.00;;
25917;SDS011;13899;51.174;4.456;2023-04-03T01:12:21;14.18;;;12.85;;
25917;SDS011;13899;51.174;4.456;2023-04-03T01:14:54;15.20;;;13.55;;
25917;SDS011;13899;51.174;4.456;2023-04-03T01:20:14;16.13;;;12.60;;
25917;SDS011;13899;51.174;4.456;2023-04-03T01:25:29;13.43;;;12.13;;
25917;SDS011;13899;51.174;4.456;2023-04-03T01:27:55;14.13;;;12.68;;
25917;SDS011;13899;51.174;4.456;2023-04-03T01:30:21;11.17;;;10.03;;
25917;SDS011;13899;51.174;4.456;2023-04-03T01:32:52;15.75;;;14.15;;
25917;SDS011;13899;51.174;4.456;2023-04-03T01:35:17;16.03;;;14.17;;
25917;SDS011;13899;51.174;4.456;2023-04-03T01:37:43;15.93;;;14.23;;
25917;SDS011;13899;51.174;4.456;2023-04-03T01:40:08;11.50;;;10.40;;
25917;SDS011;13899;51.174;4.456;2023-04-03T01:42:34;14.83;;;13.33;;
25917;SDS011;13899;51.174;4.456;2023-04-03T01:45:00;13.20;;;10.77;;
25917;SDS011;13899;51.174;4.456;2023-04-03T01:47:25;16.50;;;13.60;;
25917;SDS011;13899;51.174;4.456;2023-04-03T01:49:51;19.53;;;13.77;;
25917;SDS011;13899;51.174;4.456;2023-04-03T01:52:16;19.17;;;13.80;;
25917;SDS011;13899;51.174;4.456;2023-04-03T01:54:42;15.37;;;13.40;;
25917;SDS011;13899;51.174;4.456;2023-04-03T01:57:08;17.40;;;14.37;;
25917;SDS011;13899;51.174;4.456;2023-04-03T01:59:33;16.23;;;13.33;;
25917;SDS011;13899;51.174;4.456;2023-04-03T02:01:59;18.33;;;13.50;;
25917;SDS011;13899;51.174;4.456;2023-04-03T02:04:25;16.13;;;14.37;;
25917;SDS011;13899;51.174;4.456;2023-04-03T02:06:50;15.30;;;13.80;;
25917;SDS011;13899;51.174;4.456;2023-04-03T02:09:16;15.80;;;14.20;;
25917;SDS011;13899;51.174;4.456;2023-04-03T02:11:42;16.60;;;14.20;;
25917;SDS011;13899;51.174;4.456;2023-04-03T02:14:07;15.97;;;14.33;;
25917;SDS011;13899;51.174;4.456;2023-04-03T02:16:33;19.67;;;13.47;;
25917;SDS011;13899;51.174;4.456;2023-04-03T02:18:58;15.00;;;13.37;;
25917;SDS011;13899;51.174;4.456;2023-04-03T02:21:24;16.47;;;13.63;;
25917;SDS011;13899;51.174;4.456;2023-04-03T02:23:50;13.07;;;10.07;;
25917;SDS011;13899;51.174;4.456;2023-04-03T02:26:16;14.93;;;13.43;;
25917;SDS011;13899;51.174;4.456;2023-04-03T02:28:42;11.68;;;10.48;;
25917;SDS011;13899;51.174;4.456;2023-04-03T02:31:08;16.63;;;13.57;;
25917;SDS011;13899;51.174;4.456;2023-04-03T02:33:35;15.77;;;14.25;;
25917;SDS011;13899;51.174;4.456;2023-04-03T02:36:01;16.00;;;13.82;;
25917;SDS011;13899;51.174;4.456;2023-04-03T02:38:28;16.80;;;12.68;;
25917;SDS011;13899;51.174;4.456;2023-04-03T02:40:59;14.48;;;13.18;;
25917;SDS011;13899;51.174;4.456;2023-04-03T02:43:28;14.77;;;13.27;;
25917;SDS011;13899;51.174;4.456;2023-04-03T02:45:53;14.40;;;13.10;;
25917;SDS011;13899;51.174;4.456;2023-04-03T02:48:19;17.97;;;13.90;;
25917;SDS011;13899;51.174;4.456;2023-04-03T02:50:45;15.37;;;13.87;;
25917;SDS011;13899;51.174;4.456;2023-04-03T02:53:10;15.30;;;13.80;;
25917;SDS011;13899;51.174;4.456;2023-04-03T02:55:36;16.07;;;14.57;;
25917;SDS011;13899;51.174;4.456;2023-04-03T02:58:01;16.50;;;13.80;;
25917;SDS011;13899;51.174;4.456;2023-04-03T03:00:28;15.82;;;13.80;;
25917;SDS011;13899;51.174;4.456;2023-04-03T03:02:54;16.70;;;14.37;;
25917;SDS011;13899;51.174;4.456;2023-04-03T03:05:19;17.23;;;15.47;;
25917;SDS011;13899;51.174;4.456;2023-04-03T03:07:45;16.17;;;14.57;;
25917;SDS011;13899;51.174;4.456;2023-04-03T03:10:10;15.03;;;13.63;;
25917;SDS011;13899;51.174;4.456;2023-04-03T03:12:36;16.07;;;14.37;;
25917;SDS011;13899;51.174;4.456;2023-04-03T03:15:02;16.30;;;14.60;;
25917;SDS011;13899;51.174;4.456;2023-04-03T03:17:27;20.37;;;15.73;;
25917;SDS011;13899;51.174;4.456;2023-04-03T03:19:53;17.63;;;15.73;;
25917;SDS011;13899;51.174;4.456;2023-04-03T03:22:19;21.97;;;15.90;;
25917;SDS011;13899;51.174;4.456;2023-04-03T03:24:45;17.33;;;14.68;;
25917;SDS011;13899;51.174;4.456;2023-04-03T03:27:10;20.40;;;15.47;;
25917;SDS011;13899;51.174;4.456;2023-04-03T03:29:37;25.08;;;16.30;;
25917;SDS011;13899;51.174;4.456;2023-04-03T03:32:03;16.10;;;14.47;;
25917;SDS011;13899;51.174;4.456;2023-04-03T03:34:28;18.13;;;16.23;;
25917;SDS011;13899;51.174;4.456;2023-04-03T03:36:54;17.07;;;14.63;;
25917;SDS011;13899;51.174;4.456;2023-04-03T03:39:20;18.27;;;15.20;;
25917;SDS011;13899;51.174;4.456;2023-04-03T03:41:46;16.80;;;15.23;;
25917;SDS011;13899;51.174;4.456;2023-04-03T03:44:12;17.25;;;15.55;;
25917;SDS011;13899;51.174;4.456;2023-04-03T03:46:37;14.20;;;11.63;;
25917;SDS011;13899;51.174;4.456;2023-04-03T03:49:03;19.63;;;15.53;;
25917;SDS011;13899;51.174;4.456;2023-04-03T03:51:29;19.97;;;16.40;;
25917;SDS011;13899;51.174;4.456;2023-04-03T03:53:55;16.60;;;14.87;;
25917;SDS011;13899;51.174;4.456;2023-04-03T03:56:20;17.10;;;15.00;;
25917;SDS011;13899;51.174;4.456;2023-04-03T03:58:46;18.65;;;15.00;;
25917;SDS011;13899;51.174;4.456;2023-04-03T04:01:12;20.20;;;15.80;;
25917;SDS011;13899;51.174;4.456;2023-04-03T04:03:38;20.53;;;16.13;;
25917;SDS011;13899;51.174;4.456;2023-04-03T04:06:03;13.77;;;11.83;;
25917;SDS011;13899;51.174;4.456;2023-04-03T04:08:29;18.97;;;15.77;;
25917;SDS011;13899;51.174;4.456;2023-04-03T04:10:55;16.90;;;15.10;;
25917;SDS011;13899;51.174;4.456;2023-04-03T04:13:20;20.00;;;15.43;;
25917;SDS011;13899;51.174;4.456;2023-04-03T04:15:46;16.53;;;14.77;;
25917;SDS011;13899;51.174;4.456;2023-04-03T04:18:11;17.30;;;15.50;;
25917;SDS011;13899;51.174;4.456;2023-04-03T04:20:37;16.90;;;15.37;;
25917;SDS011;13899;51.174;4.456;2023-04-03T04:23:03;16.20;;;11.87;;
25917;SDS011;13899;51.174;4.456;2023-04-03T04:25:28;19.80;;;15.47;;
25917;SDS011;13899;51.174;4.456;2023-04-03T04:27:54;17.63;;;15.37;;
25917;SDS011;13899;51.174;4.456;2023-04-03T04:30:19;22.97;;;17.17;;
25917;SDS011;13899;51.174;4.456;2023-04-03T04:32:45;19.53;;;17.53;;
25917;SDS011;13899;51.174;4.456;2023-04-03T04:35:11;17.55;;;15.73;;
25917;SDS011;13899;51.174;4.456;2023-04-03T04:37:37;19.73;;;16.50;;
25917;SDS011;13899;51.174;4.456;2023-04-03T04:40:03;18.17;;;16.27;;
25917;SDS011;13899;51.174;4.456;2023-04-03T04:42:29;15.40;;;13.27;;
25917;SDS011;13899;51.174;4.456;2023-04-03T04:44:54;18.70;;;15.97;;
25917;SDS011;13899;51.174;4.456;2023-04-03T04:47:20;19.07;;;16.10;;
25917;SDS011;13899;51.174;4.456;2023-04-03T04:49:46;15.20;;;13.03;;
25917;SDS011;13899;51.174;4.456;2023-04-03T04:52:12;21.65;;;17.00;;
25917;SDS011;13899;51.174;4.456;2023-04-03T04:54:38;13.60;;;12.17;;
25917;SDS011;13899;51.174;4.456;2023-04-03T04:57:03;21.80;;;18.33;;
25917;SDS011;13899;51.174;4.456;2023-04-03T04:59:29;14.17;;;12.83;;
25917;SDS011;13899;51.174;4.456;2023-04-03T05:01:55;25.93;;;16.83;;
25917;SDS011;13899;51.174;4.456;2023-04-03T05:04:20;22.97;;;17.47;;
25917;SDS011;13899;51.174;4.456;2023-04-03T05:06:46;29.57;;;17.77;;
25917;SDS011;13899;51.174;4.456;2023-04-03T05:09:12;19.90;;;17.57;;
25917;SDS011;13899;51.174;4.456;2023-04-03T05:11:37;22.03;;;17.73;;
25917;SDS011;13899;51.174;4.456;2023-04-03T05:14:03;20.47;;;18.27;;
25917;SDS011;13899;51.174;4.456;2023-04-03T05:16:31;19.65;;;17.55;;
25917;SDS011;13899;51.174;4.456;2023-04-03T05:18:57;19.02;;;15.90;;
25917;SDS011;13899;51.174;4.456;2023-04-03T05:21:23;20.75;;;18.25;;
25917;SDS011;13899;51.174;4.456;2023-04-03T05:23:52;22.00;;;18.23;;
25917;SDS011;13899;51.174;4.456;2023-04-03T05:26:18;15.73;;;14.13;;
25917;SDS011;13899;51.174;4.456;2023-04-03T05:28:46;22.23;;;19.60;;
25917;SDS011;13899;51.174;4.456;2023-04-03T05:31:14;23.80;;;18.55;;
25917;SDS011;13899;51.174;4.456;2023-04-03T05:33:43;29.40;;;19.23;;
25917;SDS011;13899;51.174;4.456;2023-04-03T05:50:14;22.90;;;19.05;;
25917;SDS011;13899;51.174;4.456;2023-04-03T05:52:59;21.85;;;18.30;;
25917;SDS011;13899;51.174;4.456;2023-04-03T06:04:27;26.08;;;19.35;;
25917;SDS011;13899;51.174;4.456;2023-04-03T06:07:00;19.90;;;17.52;;
25917;SDS011;13899;51.174;4.456;2023-04-03T06:09:28;25.45;;;19.20;;
25917;SDS011;13899;51.174;4.456;2023-04-03T06:11:55;22.02;;;18.98;;
25917;SDS011;13899;51.174;4.456;2023-04-03T06:14:30;19.58;;;17.70;;
25917;SDS011;13899;51.174;4.456;2023-04-03T06:16:56;16.45;;;13.73;;
25917;SDS011;13899;51.174;4.456;2023-04-03T06:19:26;20.98;;;18.77;;
25917;SDS011;13899;51.174;4.456;2023-04-03T06:22:27;22.13;;;17.90;;
25917;SDS011;13899;51.174;4.456;2023-04-03T06:30:46;19.50;;;17.00;;
25917;SDS011;13899;51.174;4.456;2023-04-03T06:33:13;18.48;;;16.58;;
25917;SDS011;13899;51.174;4.456;2023-04-03T06:36:42;18.15;;;16.13;;
25917;SDS011;13899;51.174;4.456;2023-04-03T06:39:35;19.67;;;15.82;;
25917;SDS011;13899;51.174;4.456;2023-04-03T06:42:01;14.60;;;13.03;;
25917;SDS011;13899;51.174;4.456;2023-04-03T06:44:27;14.38;;;12.98;;
25917;SDS011;13899;51.174;4.456;2023-04-03T06:47:16;16.08;;;12.48;;
25917;SDS011;13899;51.174;4.456;2023-04-03T06:49:54;12.93;;;11.50;;
25917;SDS011;13899;51.174;4.456;2023-04-03T06:52:24;13.65;;;10.85;;
25917;SDS011;13899;51.174;4.456;2023-04-03T06:55:05;14.55;;;9.90;;
25917;SDS011;13899;51.174;4.456;2023-04-03T06:57:31;12.33;;;9.13;;
25917;SDS011;13899;51.174;4.456;2023-04-03T06:59:57;10.30;;;9.30;;
25917;SDS011;13899;51.174;4.456;2023-04-03T07:02:22;9.83;;;8.80;;
25917;SDS011;13899;51.174;4.456;2023-04-03T07:04:48;17.33;;;9.20;;
25917;SDS011;13899;51.174;4.456;2023-04-03T07:07:18;9.70;;;8.70;;
25917;SDS011;13899;51.174;4.456;2023-04-03T07:10:04;12.20;;;8.65;;
25917;SDS011;13899;51.174;4.456;2023-04-03T07:12:34;9.65;;;7.55;;
25917;SDS011;13899;51.174;4.456;2023-04-03T07:15:02;7.03;;;6.10;;
25917;SDS011;13899;51.174;4.456;2023-04-03T07:17:31;8.63;;;7.30;;
25917;SDS011;13899;51.174;4.456;2023-04-03T07:20:21;7.65;;;6.15;;
25917;SDS011;13899;51.174;4.456;2023-04-03T07:22:50;7.80;;;6.23;;
25917;SDS011;13899;51.174;4.456;2023-04-03T07:25:16;9.07;;;6.15;;
25917;SDS011;13899;51.174;4.456;2023-04-03T07:27:42;9.50;;;6.10;;
25917;SDS011;13899;51.174;4.456;2023-04-03T07:32:35;5.93;;;5.30;;
25917;SDS011;13899;51.174;4.456;2023-04-03T07:35:01;7.60;;;5.95;;
25917;SDS011;13899;51.174;4.456;2023-04-03T07:37:29;6.78;;;5.38;;
25917;SDS011;13899;51.174;4.456;2023-04-03T07:39:54;6.77;;;5.03;;
25917;SDS011;13899;51.174;4.456;2023-04-03T07:42:22;5.85;;;4.78;;
25917;SDS011;13899;51.174;4.456;2023-04-03T07:44:47;7.50;;;4.60;;
25917;SDS011;13899;51.174;4.456;2023-04-03T07:47:13;8.07;;;4.93;;
25917;SDS011;13899;51.174;4.456;2023-04-03T07:49:42;5.45;;;4.72;;
25917;SDS011;13899;51.174;4.456;2023-04-03T07:52:08;6.33;;;4.10;;
25917;SDS011;13899;51.174;4.456;2023-04-03T07:54:35;8.52;;;4.72;;
25917;SDS011;13899;51.174;4.456;2023-04-03T07:57:08;6.85;;;4.43;;
25917;SDS011;13899;51.174;4.456;2023-04-03T07:59:34;4.20;;;3.00;;
25917;SDS011;13899;51.174;4.456;2023-04-03T08:04:32;6.85;;;3.90;;
25917;SDS011;13899;51.174;4.456;2023-04-03T08:09:36;9.13;;;3.80;;
25917;SDS011;13899;51.174;4.456;2023-04-03T08:12:06;6.38;;;4.00;;
25917;SDS011;13899;51.174;4.456;2023-04-03T08:14:32;4.10;;;3.73;;
25917;SDS011;13899;51.174;4.456;2023-04-03T08:17:01;18.75;;;4.13;;
25917;SDS011;13899;51.174;4.456;2023-04-03T08:19:39;4.13;;;3.40;;
25917;SDS011;13899;51.174;4.456;2023-04-03T08:22:28;6.50;;;4.10;;
25917;SDS011;13899;51.174;4.456;2023-04-03T08:25:00;5.32;;;3.45;;
25917;SDS011;13899;51.174;4.456;2023-04-03T08:27:28;6.00;;;3.70;;
25917;SDS011;13899;51.174;4.456;2023-04-03T08:29:58;5.55;;;3.10;;
25917;SDS011;13899;51.174;4.456;2023-04-03T08:32:30;5.93;;;3.38;;
25917;SDS011;13899;51.174;4.456;2023-04-03T08:34:57;8.10;;;3.53;;
25917;SDS011;13899;51.174;4.456;2023-04-03T08:40:30;7.00;;;3.50;;
25917;SDS011;13899;51.174;4.456;2023-04-03T08:46:11;4.18;;;2.92;;
25917;SDS011;13899;51.174;4.456;2023-04-03T08:49:37;4.55;;;2.60;;
25917;SDS011;13899;51.174;4.456;2023-04-03T08:52:41;6.07;;;2.95;;
25917;SDS011;13899;51.174;4.456;2023-04-03T08:55:22;3.33;;;1.95;;
25917;SDS011;13899;51.174;4.456;2023-04-03T08:57:51;3.10;;;2.25;;
25917;SDS011;13899;51.174;4.456;2023-04-03T09:00:57;4.70;;;2.25;;
25917;SDS011;13899;51.174;4.456;2023-04-03T09:03:51;3.37;;;2.60;;
25917;SDS011;13899;51.174;4.456;2023-04-03T09:06:38;5.30;;;2.58;;
25917;SDS011;13899;51.174;4.456;2023-04-03T09:18:32;5.15;;;4.75;;
25917;SDS011;13899;51.174;4.456;2023-04-03T09:23:55;3.47;;;1.50;;
25917;SDS011;13899;51.174;4.456;2023-04-03T09:26:53;3.90;;;3.38;;
25917;SDS011;13899;51.174;4.456;2023-04-03T09:29:52;4.72;;;1.15;;
25917;SDS011;13899;51.174;4.456;2023-04-03T09:48:05;3.20;;;1.20;;
25917;SDS011;13899;51.174;4.456;2023-04-03T09:51:25;4.20;;;3.90;;
25917;SDS011;13899;51.174;4.456;2023-04-03T10:06:47;4.30;;;1.10;;
25917;SDS011;13899;51.174;4.456;2023-04-03T10:09:39;1.98;;;1.15;;
25917;SDS011;13899;51.174;4.456;2023-04-03T10:12:11;2.33;;;1.27;;
25917;SDS011;13899;51.174;4.456;2023-04-03T10:26:04;2.50;;;1.17;;
25917;SDS011;13899;51.174;4.456;2023-04-03T10:32:11;1.67;;;1.00;;
25917;SDS011;13899;51.174;4.456;2023-04-03T10:35:01;11.30;;;10.82;;
25917;SDS011;13899;51.174;4.456;2023-04-03T10:40:46;16.00;;;15.30;;
25917;SDS011;13899;51.174;4.456;2023-04-03T10:43:21;9.55;;;9.05;;
25917;SDS011;13899;51.174;4.456;2023-04-03T10:46:04;2.13;;;1.35;;
25917;SDS011;13899;51.174;4.456;2023-04-03T10:48:47;2.88;;;1.13;;
25917;SDS011;13899;51.174;4.456;2023-04-03T10:51:41;2.87;;;1.03;;
25917;SDS011;13899;51.174;4.456;2023-04-03T10:54:25;2.75;;;1.00;;
25917;SDS011;13899;51.174;4.456;2023-04-03T10:57:04;1.67;;;1.17;;
25917;SDS011;13899;51.174;4.456;2023-04-03T10:59:37;2.38;;;0.95;;
25917;SDS011;13899;51.174;4.456;2023-04-03T11:02:51;2.40;;;1.58;;
25917;SDS011;13899;51.174;4.456;2023-04-03T11:05:31;2.00;;;0.98;;
25917;SDS011;13899;51.174;4.456;2023-04-03T11:10:48;1.35;;;0.98;;
25917;SDS011;13899;51.174;4.456;2023-04-03T11:13:38;7.07;;;6.78;;
25917;SDS011;13899;51.174;4.456;2023-04-03T11:18:32;2.15;;;0.82;;
25917;SDS011;13899;51.174;4.456;2023-04-03T11:21:12;2.10;;;0.82;;
25917;SDS011;13899;51.174;4.456;2023-04-03T11:23:46;2.30;;;1.10;;
25917;SDS011;13899;51.174;4.456;2023-04-03T11:28:46;1.27;;;0.60;;
25917;SDS011;13899;51.174;4.456;2023-04-03T11:37:01;3.90;;;3.70;;
25917;SDS011;13899;51.174;4.456;2023-04-03T11:39:36;4.53;;;2.58;;
25917;SDS011;13899;51.174;4.456;2023-04-03T11:47:52;5.40;;;5.10;;
25917;SDS011;13899;51.174;4.456;2023-04-03T12:03:55;4.28;;;4.07;;
25917;SDS011;13899;51.174;4.456;2023-04-03T12:18:57;9.95;;;9.55;;
25917;SDS011;13899;51.174;4.456;2023-04-03T12:26:36;1.67;;;1.58;;
25917;SDS011;13899;51.174;4.456;2023-04-03T12:38:10;4.68;;;4.47;;
25917;SDS011;13899;51.174;4.456;2023-04-03T12:46:28;1.05;;;0.70;;
25917;SDS011;13899;51.174;4.456;2023-04-03T12:49:12;0.85;;;0.60;;
25917;SDS011;13899;51.174;4.456;2023-04-03T12:51:51;2.63;;;0.73;;
25917;SDS011;13899;51.174;4.456;2023-04-03T12:57:38;1.25;;;0.60;;
25917;SDS011;13899;51.174;4.456;2023-04-03T12:59:53;10.15;;;9.65;;
25917;SDS011;13899;51.174;4.456;2023-04-03T13:02:24;1.95;;;0.90;;
25917;SDS011;13899;51.174;4.456;2023-04-03T13:04:56;14.60;;;13.90;;
25917;SDS011;13899;51.174;4.456;2023-04-03T13:09:55;14.23;;;13.50;;
25917;SDS011;13899;51.174;4.456;2023-04-03T13:12:22;10.23;;;9.73;;
25917;SDS011;13899;51.174;4.456;2023-04-03T13:14:55;9.03;;;8.53;;
25917;SDS011;13899;51.174;4.456;2023-04-03T13:17:23;2.80;;;2.60;;
25917;SDS011;13899;51.174;4.456;2023-04-03T13:19:50;1.60;;;1.00;;
25917;SDS011;13899;51.174;4.456;2023-04-03T13:22:38;1.85;;;0.70;;
25917;SDS011;13899;51.174;4.456;2023-04-03T13:25:13;1.23;;;0.82;;
25917;SDS011;13899;51.174;4.456;2023-04-03T13:27:47;0.77;;;0.70;;
25917;SDS011;13899;51.174;4.456;2023-04-03T13:32:45;1.83;;;0.73;;
25917;SDS011;13899;51.174;4.456;2023-04-03T13:38:21;4.03;;;3.72;;
25917;SDS011;13899;51.174;4.456;2023-04-03T13:40:53;6.43;;;6.13;;
25917;SDS011;13899;51.174;4.456;2023-04-03T13:43:22;3.45;;;3.25;;
25917;SDS011;13899;51.174;4.456;2023-04-03T13:45:54;12.82;;;12.32;;
25917;SDS011;13899;51.174;4.456;2023-04-03T13:48:26;2.00;;;0.70;;
25917;SDS011;13899;51.174;4.456;2023-04-03T13:53:21;6.10;;;5.90;;
25917;SDS011;13899;51.174;4.456;2023-04-03T13:55:55;14.10;;;13.60;;
25917;SDS011;13899;51.174;4.456;2023-04-03T13:58:31;10.10;;;9.70;;
25917;SDS011;13899;51.174;4.456;2023-04-03T14:01:11;15.55;;;14.77;;
25917;SDS011;13899;51.174;4.456;2023-04-03T14:03:47;5.53;;;5.22;;
25917;SDS011;13899;51.174;4.456;2023-04-03T14:06:18;10.85;;;10.32;;
25917;SDS011;13899;51.174;4.456;2023-04-03T14:08:45;1.67;;;0.60;;
25917;SDS011;13899;51.174;4.456;2023-04-03T14:11:22;1.85;;;0.73;;
25917;SDS011;13899;51.174;4.456;2023-04-03T14:13:53;1.73;;;0.70;;
25917;SDS011;13899;51.174;4.456;2023-04-03T14:16:23;1.98;;;1.73;;
25917;SDS011;13899;51.174;4.456;2023-04-03T14:18:52;1.65;;;0.70;;
25917;SDS011;13899;51.174;4.456;2023-04-03T14:21:18;1.85;;;0.80;;
25917;SDS011;13899;51.174;4.456;2023-04-03T14:23:47;1.27;;;0.85;;
25917;SDS011;13899;51.174;4.456;2023-04-03T14:26:15;13.32;;;12.73;;
25917;SDS011;13899;51.174;4.456;2023-04-03T14:28:43;10.75;;;10.25;;
25917;SDS011;13899;51.174;4.456;2023-04-03T14:31:11;1.55;;;1.10;;
25917;SDS011;13899;51.174;4.456;2023-04-03T14:33:38;2.55;;;2.03;;
25917;SDS011;13899;51.174;4.456;2023-04-03T14:36:14;11.70;;;11.18;;
25917;SDS011;13899;51.174;4.456;2023-04-03T14:38:42;1.67;;;0.70;;
25917;SDS011;13899;51.174;4.456;2023-04-03T14:41:10;1.60;;;0.60;;
25917;SDS011;13899;51.174;4.456;2023-04-03T14:43:38;0.98;;;0.50;;
25917;SDS011;13899;51.174;4.456;2023-04-03T14:46:04;2.20;;;0.70;;
25917;SDS011;13899;51.174;4.456;2023-04-03T14:48:30;1.35;;;0.60;;
25917;SDS011;13899;51.174;4.456;2023-04-03T14:50:59;1.53;;;0.60;;
25917;SDS011;13899;51.174;4.456;2023-04-03T14:53:25;2.28;;;2.17;;
25917;SDS011;13899;51.174;4.456;2023-04-03T14:55:51;2.67;;;2.30;;
25917;SDS011;13899;51.174;4.456;2023-04-03T14:58:18;1.88;;;1.33;;
25917;SDS011;13899;51.174;4.456;2023-04-03T15:00:46;8.10;;;7.70;;
25917;SDS011;13899;51.174;4.456;2023-04-03T15:03:18;10.48;;;9.93;;
25917;SDS011;13899;51.174;4.456;2023-04-03T15:05:46;8.93;;;8.52;;
25917;SDS011;13899;51.174;4.456;2023-04-03T15:08:21;3.70;;;3.50;;
25917;SDS011;13899;51.174;4.456;2023-04-03T15:10:49;11.07;;;10.57;;
25917;SDS011;13899;51.174;4.456;2023-04-03T15:13:19;6.57;;;6.28;;
25917;SDS011;13899;51.174;4.456;2023-04-03T15:15:45;3.08;;;2.78;;
25917;SDS011;13899;51.174;4.456;2023-04-03T15:18:17;2.00;;;1.20;;
25917;SDS011;13899;51.174;4.456;2023-04-03T15:20:46;2.08;;;0.90;;
25917;SDS011;13899;51.174;4.456;2023-04-03T15:23:14;2.30;;;2.10;;
25917;SDS011;13899;51.174;4.456;2023-04-03T15:25:45;7.10;;;6.80;;
25917;SDS011;13899;51.174;4.456;2023-04-03T15:28:22;2.13;;;0.90;;
25917;SDS011;13899;51.174;4.456;2023-04-03T15:30:57;2.33;;;1.42;;
25917;SDS011;13899;51.174;4.456;2023-04-03T15:33:24;6.90;;;6.60;;
25917;SDS011;13899;51.174;4.456;2023-04-03T15:35:50;7.35;;;6.95;;
25917;SDS011;13899;51.174;4.456;2023-04-03T15:38:18;4.20;;;3.65;;
25917;SDS011;13899;51.174;4.456;2023-04-03T15:40:44;5.20;;;4.87;;
25917;SDS011;13899;51.174;4.456;2023-04-03T15:43:13;2.20;;;1.00;;
25917;SDS011;13899;51.174;4.456;2023-04-03T15:45:39;1.38;;;0.80;;
25917;SDS011;13899;51.174;4.456;2023-04-03T15:48:06;1.50;;;1.00;;
25917;SDS011;13899;51.174;4.456;2023-04-03T15:50:34;1.25;;;0.75;;
25917;SDS011;13899;51.174;4.456;2023-04-03T15:53:00;1.80;;;0.70;;
25917;SDS011;13899;51.174;4.456;2023-04-03T15:55:27;2.13;;;0.80;;
25917;SDS011;13899;51.174;4.456;2023-04-03T15:57:55;1.60;;;0.88;;
25917;SDS011;13899;51.174;4.456;2023-04-03T16:00:22;1.03;;;0.90;;
25917;SDS011;13899;51.174;4.456;2023-04-03T16:02:50;1.88;;;1.00;;
25917;SDS011;13899;51.174;4.456;2023-04-03T16:05:18;2.55;;;2.22;;
25917;SDS011;13899;51.174;4.456;2023-04-03T16:07:44;4.38;;;4.10;;
25917;SDS011;13899;51.174;4.456;2023-04-03T16:10:11;3.92;;;3.65;;
25917;SDS011;13899;51.174;4.456;2023-04-03T16:12:38;1.52;;;1.10;;
25917;SDS011;13899;51.174;4.456;2023-04-03T16:17:32;1.90;;;1.55;;
25917;SDS011;13899;51.174;4.456;2023-04-03T16:20:01;4.63;;;3.90;;
25917;SDS011;13899;51.174;4.456;2023-04-03T16:22:28;2.83;;;1.00;;
25917;SDS011;13899;51.174;4.456;2023-04-03T16:24:55;3.15;;;2.42;;
25917;SDS011;13899;51.174;4.456;2023-04-03T16:27:21;1.98;;;1.00;;
25917;SDS011;13899;51.174;4.456;2023-04-03T16:29:54;2.38;;;1.40;;
25917;SDS011;13899;51.174;4.456;2023-04-03T16:32:20;2.22;;;1.02;;
25917;SDS011;13899;51.174;4.456;2023-04-03T16:34:47;2.60;;;1.83;;
25917;SDS011;13899;51.174;4.456;2023-04-03T16:37:14;2.58;;;1.40;;
25917;SDS011;13899;51.174;4.456;2023-04-03T16:39:48;2.03;;;1.00;;
25917;SDS011;13899;51.174;4.456;2023-04-03T16:42:14;2.50;;;1.30;;
25917;SDS011;13899;51.174;4.456;2023-04-03T16:44:40;3.28;;;2.28;;
25917;SDS011;13899;51.174;4.456;2023-04-03T16:47:07;7.15;;;2.47;;
25917;SDS011;13899;51.174;4.456;2023-04-03T16:49:33;3.63;;;3.33;;
25917;SDS011;13899;51.174;4.456;2023-04-03T16:52:03;2.70;;;1.20;;
25917;SDS011;13899;51.174;4.456;2023-04-03T16:54:30;2.17;;;1.17;;
25917;SDS011;13899;51.174;4.456;2023-04-03T16:56:56;2.40;;;1.20;;
25917;SDS011;13899;51.174;4.456;2023-04-03T16:59:22;2.80;;;1.27;;
25917;SDS011;13899;51.174;4.456;2023-04-03T17:01:48;3.73;;;1.47;;
25917;SDS011;13899;51.174;4.456;2023-04-03T17:04:14;2.88;;;1.10;;
25917;SDS011;13899;51.174;4.456;2023-04-03T17:06:40;3.10;;;2.40;;
25917;SDS011;13899;51.174;4.456;2023-04-03T17:09:05;5.20;;;3.50;;
25917;SDS011;13899;51.174;4.456;2023-04-03T17:11:31;3.57;;;3.27;;
25917;SDS011;13899;51.174;4.456;2023-04-03T17:13:57;5.13;;;4.83;;
25917;SDS011;13899;51.174;4.456;2023-04-03T17:16:24;2.95;;;1.48;;
25917;SDS011;13899;51.174;4.456;2023-04-03T17:18:50;1.85;;;1.38;;
25917;SDS011;13899;51.174;4.456;2023-04-03T17:21:18;3.22;;;1.50;;
25917;SDS011;13899;51.174;4.456;2023-04-03T17:23:44;3.30;;;1.30;;
25917;SDS011;13899;51.174;4.456;2023-04-03T17:26:13;2.25;;;1.30;;
25917;SDS011;13899;51.174;4.456;2023-04-03T17:28:39;2.72;;;1.55;;
25917;SDS011;13899;51.174;4.456;2023-04-03T17:31:06;2.20;;;1.20;;
25917;SDS011;13899;51.174;4.456;2023-04-03T17:33:31;3.20;;;1.33;;
25917;SDS011;13899;51.174;4.456;2023-04-03T17:35:59;3.15;;;1.45;;
25917;SDS011;13899;51.174;4.456;2023-04-03T17:38:27;2.40;;;1.50;;
25917;SDS011;13899;51.174;4.456;2023-04-03T17:40:57;3.08;;;1.60;;
25917;SDS011;13899;51.174;4.456;2023-04-03T17:43:24;2.05;;;1.40;;
25917;SDS011;13899;51.174;4.456;2023-04-03T17:48:15;2.25;;;1.50;;
25917;SDS011;13899;51.174;4.456;2023-04-03T17:50:41;3.20;;;1.33;;
25917;SDS011;13899;51.174;4.456;2023-04-03T17:53:06;2.75;;;1.30;;
25917;SDS011;13899;51.174;4.456;2023-04-03T17:55:32;3.03;;;1.27;;
25917;SDS011;13899;51.174;4.456;2023-04-03T17:57:58;3.60;;;1.87;;
25917;SDS011;13899;51.174;4.456;2023-04-03T18:00:23;1.83;;;1.40;;
25917;SDS011;13899;51.174;4.456;2023-04-03T18:02:52;4.00;;;1.33;;
25917;SDS011;13899;51.174;4.456;2023-04-03T18:05:18;2.95;;;1.50;;
25917;SDS011;13899;51.174;4.456;2023-04-03T18:07:44;3.40;;;1.37;;